Aviation Digital Data Service (ADDS)

Output produced by METARs form (0907 UTC 23 July 2019)
found at http://www.aviationweather.gov/metar/data/
 
METAR text: EPKK 230900Z 28006KT 240V310 9999 FEW009 BKN020 18/16 Q1020
Conditions at: EPKK (KRAKOW/BALICE , PL) observed 0900 UTC 23 July 2019
Temperature: 18.0°C (64°F)
Dewpoint: 16.0°C (61°F) [RH = 88%]
Pressure (altimeter): 30.12 inches Hg (1020.0 mb)
Winds: from the W (280 degrees) at 7 MPH (6 knots; 3.1 m/s)
Visibility: 6 or more miles (10+ km)
Ceiling: 2000 feet AGL
Clouds: few clouds at 900 feet AGL
broken clouds at 2000 feet AGL
Weather: no significant weather observed at this time

METAR text: EPKK 230830Z 27007KT 9999 FEW010 BKN020 18/16 Q1021
Conditions at: EPKK (KRAKOW/BALICE , PL) observed 0830 UTC 23 July 2019
Temperature: 18.0°C (64°F)
Dewpoint: 16.0°C (61°F) [RH = 88%]
Pressure (altimeter): 30.15 inches Hg (1021.0 mb)
Winds: from the W (270 degrees) at 8 MPH (7 knots; 3.6 m/s)
Visibility: 6 or more miles (10+ km)
Ceiling: 2000 feet AGL
Clouds: few clouds at 1000 feet AGL
broken clouds at 2000 feet AGL
Weather: no significant weather observed at this time

Forecast for: EPKK (KRAKOW/BALICE , PL)
Text: TAF EPKK 230830Z 2309/2409 28008KT 9999 OVC019
Forecast period: 0900 UTC 23 July 2019 to 0900 UTC 24 July 2019
Forecast type: FROM: standard forecast or significant change
Winds: from the W (280 degrees) at 9 MPH (8 knots; 4.1 m/s)
Visibility: 6 or more miles 10+ km)
Ceiling: 1900 feet AGL
Clouds: overcast cloud deck at 1900 feet AGL
Weather: no significant weather forecast for this period
Text: TEMPO 2309/2311 BKN007 OVC013
Forecast period: 0900 to 1100 UTC 23 July 2019
Forecast type: TEMPORARY: The following changes expected for less than half the time period
Visibility: missing
Ceiling: 700 feet AGL
Clouds: broken clouds at 700 feet AGL
overcast cloud deck at 1300 feet AGL
Weather: no significant weather forecast for this period
Text: PROB40
Forecast period: 2100 UTC 23 July 2019 to 0600 UTC 24 July 2019
Forecast type: TEMPORARY: The following changes expected for less than half the time period
Visibility: 1.24 miles (2.00 km)
Ceiling: 400 feet AGL
Clouds: broken clouds at 400 feet AGL
Weather: BR  (mist)